Flight Track Log - Related Links

Times and Time Zones

All times are in EDT time to prevent confusion due to time zone crossing. See the GJS3649 flight status page for this flight to view local times or setup timezone preferences in your user account.

Time Position Orientation Groundspeed Altitude Reporting Facility
EDT Latitude Longitude Course Direction KTS MPH feet Rate Location/Type
Sat 07:36:24 PM 36.9036 -76.1919 300° West 144 166 700  Level Washington Center
Sat 07:37:25 PM 36.9392 -76.1611 35° Northeast 180 207 3,300 2,257 Climbing Washington Center
Sat 07:38:13 PM 36.9789 -76.1378 25° Northeast 227 261 4,800 2,216 Climbing Washington Center
Sat 07:39:00 PM 37.0663 -76.5592 300° West  Level FlightAware Approximate
Sat 07:39:16 PM 37.0328 -76.1850 325° Northwest 284 327 7,400  Level Washington Center
Sat 07:40:00 PM 37.1089 -76.6528 300° West  Level FlightAware Approximate
Sat 07:40:14 PM 37.0636 -76.2789 292° West 289 333 10,500  Level Washington Center
Sat 07:41:00 PM 37.1515 -76.7465 300° West  Level FlightAware Approximate
Sat 07:41:15 PM 37.0964 -76.3783 292° West 296 341 12,400  Level Washington Center
Sat 07:42:13 PM 37.1333 -76.4933 292° West 329 379 14,000 807 Climbing Washington Center
Sat 07:43:14 PM 37.1719 -76.6136 292° West 352 405 14,000  Level Washington Center
Sat 07:44:13 PM 37.2083 -76.7314 291° West 365 420 14,000  Level Washington Center
Sat 07:45:13 PM 37.2489 -76.8625 291° West 372 428 14,000  Level Washington Center
Sat 07:46:14 PM 37.2831 -76.9806 290° West 367 422 14,000  Level Washington Center
Sat 07:47:13 PM 37.3233 -77.1014 293° West 372 428 14,000  Level Washington Center
Sat 07:48:13 PM 37.3867 -77.1864 313° West 367 422 14,000  Level Washington Center
Sat 07:49:14 PM 37.4628 -77.2742 318° Northwest 367 422 14,000  Level Washington Center
Sat 07:50:14 PM 37.5472 -77.3467 326° Northwest 367 422 14,000  Level Washington Center
Sat 07:51:16 PM 37.6403 -77.3989 336° Northwest 367 422 14,000  Level Washington Center
Sat 07:52:13 PM 37.7400 -77.4194 351° North 357 411 14,000 -462 Level Washington Center
Sat 07:53:13 PM 37.8422 -77.4247 358° North 357 411 13,100 -942 Descending Washington Center
Sat 07:54:14 PM 37.9422 -77.4297 358° North 357 411 12,100 -950 Descending Washington Center
Sat 07:55:13 PM 38.0403 -77.4400 355° North 357 411 11,200 -908 Descending Washington Center
Sat 07:56:13 PM 38.1339 -77.4450 358° North 346 398 10,300 -600 Descending Washington Center
Sat 07:57:13 PM 38.2114 -77.4203 14° North 326 375 10,000 -148 Descending Washington Center
Sat 07:58:15 PM 38.2850 -77.3878 19° North 295 339 10,000 -450 Level Washington Center
Sat 07:59:13 PM 38.3583 -77.3553 19° North 282 325 9,100 -1,200 Descending Washington Center
Sat 08:00:15 PM 38.4356 -77.3597 357° North 276 318 7,600 -1,400 Descending Washington Center
Sat 08:01:13 PM 38.5125 -77.3642 357° North 276 318 6,300 -1,300 Descending Washington Center
Sat 08:02:15 PM 38.5856 -77.3686 357° North 269 310 5,000 -1,150 Descending Washington Center
Sat 08:03:13 PM 38.6564 -77.3650 North 264 304 4,000 -458 Descending Washington Center
Sat 08:04:26 PM 38.7500 -77.3500 North 262 302 4,000  Level Potomac TRACON
Sat 08:05:26 PM 38.8333 -77.3500 360° North 259 298 4,000  Level Potomac TRACON
Sat 08:06:26 PM 38.9000 -77.3500 360° North 237 273 4,000 -450 Level Potomac TRACON
Sat 08:07:26 PM 38.9500 -77.3500 360° North 225 259 3,100 -450 Descending Potomac TRACON
Sat 08:08:26 PM 39.0167 -77.3500 360° North 220 253 3,100  Level Potomac TRACON
Sat 08:09:26 PM 39.0833 -77.3500 360° North 223 257 3,100 -50 Level Potomac TRACON
Sat 08:10:26 PM 39.1000 -77.4000 293° West 187 215 3,000 -700 Descending Potomac TRACON
Sat 08:11:26 PM 39.0667 -77.4333 218° Southwest 165 190 1,700 -1,300 Descending Potomac TRACON

Login

Don't have an account? Register now (free) for customized features, flight alerts, and more!